sensor_id;sensor_type;location;lat;lon;timestamp;temperature;humidity
17405;DHT22;8820;54.604;18.226;2022-10-16T08:39:44;22.40;67.40
17405;DHT22;8820;54.604;18.226;2022-10-16T08:42:25;23.20;70.00
17405;DHT22;8820;54.604;18.226;2022-10-16T08:49:53;24.20;64.20
17405;DHT22;8820;54.604;18.226;2022-10-16T08:52:25;23.60;64.80
17405;DHT22;8820;54.604;18.226;2022-10-16T08:54:55;22.90;65.90
17405;DHT22;8820;54.604;18.226;2022-10-16T08:57:25;22.40;67.30
17405;DHT22;8820;54.604;18.226;2022-10-16T08:59:54;22.10;68.50
17405;DHT22;8820;54.604;18.226;2022-10-16T09:02:32;22.40;68.60
17405;DHT22;8820;54.604;18.226;2022-10-16T09:05:18;22.20;69.30
17405;DHT22;8820;54.604;18.226;2022-10-16T09:07:58;22.10;69.50
17405;DHT22;8820;54.604;18.226;2022-10-16T09:10:42;22.00;70.00
17405;DHT22;8820;54.604;18.226;2022-10-16T09:13:19;22.00;70.20
17405;DHT22;8820;54.604;18.226;2022-10-16T09:15:54;21.90;70.40
17405;DHT22;8820;54.604;18.226;2022-10-16T09:18:26;21.90;70.80
17405;DHT22;8820;54.604;18.226;2022-10-16T09:21:05;21.90;70.80
17405;DHT22;8820;54.604;18.226;2022-10-16T09:23:36;21.90;70.80
17405;DHT22;8820;54.604;18.226;2022-10-16T09:26:05;21.90;71.20
17405;DHT22;8820;54.604;18.226;2022-10-16T09:28:37;21.90;70.90
17405;DHT22;8820;54.604;18.226;2022-10-16T09:31:07;21.90;70.70
17405;DHT22;8820;54.604;18.226;2022-10-16T09:33:41;21.80;70.60
17405;DHT22;8820;54.604;18.226;2022-10-16T09:38:36;22.30;74.00
17405;DHT22;8820;54.604;18.226;2022-10-16T09:41:15;22.20;69.10
17405;DHT22;8820;54.604;18.226;2022-10-16T09:43:49;22.10;69.40
17405;DHT22;8820;54.604;18.226;2022-10-16T09:46:26;22.20;69.50
17405;DHT22;8820;54.604;18.226;2022-10-16T09:48:56;22.10;69.60
17405;DHT22;8820;54.604;18.226;2022-10-16T14:21:44;24.60;68.10
17405;DHT22;8820;54.604;18.226;2022-10-16T14:24:12;24.80;67.70
17405;DHT22;8820;54.604;18.226;2022-10-16T14:26:42;23.80;56.10
17405;DHT22;8820;54.604;18.226;2022-10-16T14:29:19;22.30;58.20
17405;DHT22;8820;54.604;18.226;2022-10-16T14:31:55;21.50;61.50
17405;DHT22;8820;54.604;18.226;2022-10-16T14:34:26;20.90;64.00
17405;DHT22;8820;54.604;18.226;2022-10-16T14:36:56;20.40;64.80
17405;DHT22;8820;54.604;18.226;2022-10-16T14:39:28;20.10;66.20
17405;DHT22;8820;54.604;18.226;2022-10-16T14:41:57;19.90;67.40
17405;DHT22;8820;54.604;18.226;2022-10-16T14:44:29;19.70;68.10
17405;DHT22;8820;54.604;18.226;2022-10-16T14:47:07;19.60;69.10
17405;DHT22;8820;54.604;18.226;2022-10-16T14:49:36;19.50;69.40
17405;DHT22;8820;54.604;18.226;2022-10-16T14:52:10;19.40;71.00
17405;DHT22;8820;54.604;18.226;2022-10-16T14:54:38;19.20;71.20
17405;DHT22;8820;54.604;18.226;2022-10-16T14:57:16;19.20;71.20
17405;DHT22;8820;54.604;18.226;2022-10-16T14:59:46;19.10;71.30
17405;DHT22;8820;54.604;18.226;2022-10-16T15:02:23;19.00;71.70
17405;DHT22;8820;54.604;18.226;2022-10-16T15:04:53;19.00;72.30
17405;DHT22;8820;54.604;18.226;2022-10-16T15:07:23;18.90;72.30
17405;DHT22;8820;54.604;18.226;2022-10-16T15:09:52;18.90;72.40
17405;DHT22;8820;54.604;18.226;2022-10-16T15:12:21;18.80;72.60
17405;DHT22;8820;54.604;18.226;2022-10-16T15:14:49;18.80;72.40
17405;DHT22;8820;54.604;18.226;2022-10-16T15:17:17;18.80;72.30
17405;DHT22;8820;54.604;18.226;2022-10-16T15:19:47;18.70;72.30
17405;DHT22;8820;54.604;18.226;2022-10-16T15:22:15;18.60;72.80
17405;DHT22;8820;54.604;18.226;2022-10-16T15:24:45;18.60;73.50
17405;DHT22;8820;54.604;18.226;2022-10-16T15:27:15;18.60;73.60
17405;DHT22;8820;54.604;18.226;2022-10-16T15:29:43;18.50;73.70
17405;DHT22;8820;54.604;18.226;2022-10-16T15:32:12;18.40;74.10
17405;DHT22;8820;54.604;18.226;2022-10-16T15:34:40;18.40;74.40
17405;DHT22;8820;54.604;18.226;2022-10-16T15:37:09;18.30;75.00
17405;DHT22;8820;54.604;18.226;2022-10-16T15:39:38;18.30;75.60
17405;DHT22;8820;54.604;18.226;2022-10-16T15:42:08;18.20;75.60
17405;DHT22;8820;54.604;18.226;2022-10-16T15:44:37;18.10;75.80
17405;DHT22;8820;54.604;18.226;2022-10-16T15:47:05;18.00;76.00
17405;DHT22;8820;54.604;18.226;2022-10-16T15:49:33;18.00;76.50
17405;DHT22;8820;54.604;18.226;2022-10-16T15:52:03;18.00;76.80
17405;DHT22;8820;54.604;18.226;2022-10-16T15:54:31;17.90;77.20
17405;DHT22;8820;54.604;18.226;2022-10-16T15:57:00;17.80;77.60
17405;DHT22;8820;54.604;18.226;2022-10-16T15:59:29;17.80;78.50
17405;DHT22;8820;54.604;18.226;2022-10-16T16:01:58;17.70;78.80
17405;DHT22;8820;54.604;18.226;2022-10-16T16:04:29;17.70;79.10
17405;DHT22;8820;54.604;18.226;2022-10-16T16:07:09;17.60;79.60
17405;DHT22;8820;54.604;18.226;2022-10-16T16:09:38;17.50;79.50
17405;DHT22;8820;54.604;18.226;2022-10-16T16:12:06;17.50;79.90
17405;DHT22;8820;54.604;18.226;2022-10-16T16:14:36;17.40;80.10
17405;DHT22;8820;54.604;18.226;2022-10-16T16:17:04;17.40;80.30
17405;DHT22;8820;54.604;18.226;2022-10-16T16:19:33;17.40;80.40
17405;DHT22;8820;54.604;18.226;2022-10-16T16:22:01;17.30;80.30
17405;DHT22;8820;54.604;18.226;2022-10-16T16:24:32;17.30;80.00
17405;DHT22;8820;54.604;18.226;2022-10-16T16:27:01;17.20;80.20
17405;DHT22;8820;54.604;18.226;2022-10-16T16:29:36;17.20;80.70
17405;DHT22;8820;54.604;18.226;2022-10-16T16:32:04;17.10;80.80
17405;DHT22;8820;54.604;18.226;2022-10-16T16:34:32;17.10;80.60
17405;DHT22;8820;54.604;18.226;2022-10-16T16:37:01;17.10;80.30
17405;DHT22;8820;54.604;18.226;2022-10-16T16:39:29;17.00;80.40
17405;DHT22;8820;54.604;18.226;2022-10-16T16:41:58;17.00;81.20
17405;DHT22;8820;54.604;18.226;2022-10-16T16:44:26;16.90;81.50
17405;DHT22;8820;54.604;18.226;2022-10-16T16:46:56;16.80;81.00
17405;DHT22;8820;54.604;18.226;2022-10-16T16:49:25;16.90;81.60
17405;DHT22;8820;54.604;18.226;2022-10-16T16:51:53;16.80;82.10
17405;DHT22;8820;54.604;18.226;2022-10-16T16:54:22;16.70;82.00
17405;DHT22;8820;54.604;18.226;2022-10-16T16:56:50;16.70;82.00
17405;DHT22;8820;54.604;18.226;2022-10-16T16:59:20;16.60;81.80
17405;DHT22;8820;54.604;18.226;2022-10-16T17:01:49;16.60;82.00
17405;DHT22;8820;54.604;18.226;2022-10-16T17:04:24;16.60;82.00
17405;DHT22;8820;54.604;18.226;2022-10-16T17:06:53;16.60;81.80
17405;DHT22;8820;54.604;18.226;2022-10-16T17:09:21;16.60;81.90
17405;DHT22;8820;54.604;18.226;2022-10-16T17:11:50;16.50;81.80
17405;DHT22;8820;54.604;18.226;2022-10-16T17:14:18;16.50;81.50
17405;DHT22;8820;54.604;18.226;2022-10-16T17:16:47;16.50;81.20
17405;DHT22;8820;54.604;18.226;2022-10-16T17:19:17;16.50;81.10
17405;DHT22;8820;54.604;18.226;2022-10-16T17:21:49;16.50;80.90
17405;DHT22;8820;54.604;18.226;2022-10-16T17:24:18;16.50;80.80
17405;DHT22;8820;54.604;18.226;2022-10-16T17:26:47;16.40;80.80
17405;DHT22;8820;54.604;18.226;2022-10-16T17:29:16;16.40;81.00
17405;DHT22;8820;54.604;18.226;2022-10-16T17:31:45;16.40;81.10
17405;DHT22;8820;54.604;18.226;2022-10-16T17:34:16;16.40;81.20
17405;DHT22;8820;54.604;18.226;2022-10-16T17:36:44;16.40;81.20
17405;DHT22;8820;54.604;18.226;2022-10-16T17:39:16;16.30;81.20
17405;DHT22;8820;54.604;18.226;2022-10-16T17:41:45;16.30;81.50
17405;DHT22;8820;54.604;18.226;2022-10-16T17:44:14;16.30;81.60
17405;DHT22;8820;54.604;18.226;2022-10-16T17:46:47;16.20;81.80
17405;DHT22;8820;54.604;18.226;2022-10-16T17:49:16;16.20;82.00
17405;DHT22;8820;54.604;18.226;2022-10-16T17:51:44;16.20;82.20
17405;DHT22;8820;54.604;18.226;2022-10-16T17:54:14;16.20;82.50
17405;DHT22;8820;54.604;18.226;2022-10-16T17:56:43;16.20;82.70
17405;DHT22;8820;54.604;18.226;2022-10-16T17:59:11;16.20;83.00
17405;DHT22;8820;54.604;18.226;2022-10-16T18:01:40;16.10;84.10
17405;DHT22;8820;54.604;18.226;2022-10-16T18:04:14;16.10;83.80
17405;DHT22;8820;54.604;18.226;2022-10-16T18:06:43;16.10;84.00
17405;DHT22;8820;54.604;18.226;2022-10-16T18:09:17;16.10;84.30
17405;DHT22;8820;54.604;18.226;2022-10-16T18:11:47;16.10;84.50
17405;DHT22;8820;54.604;18.226;2022-10-16T18:14:18;16.10;84.90
17405;DHT22;8820;54.604;18.226;2022-10-16T18:16:46;16.00;85.00
17405;DHT22;8820;54.604;18.226;2022-10-16T18:19:16;16.00;85.30
17405;DHT22;8820;54.604;18.226;2022-10-16T18:21:44;16.00;85.50
17405;DHT22;8820;54.604;18.226;2022-10-16T18:24:13;16.00;86.00
17405;DHT22;8820;54.604;18.226;2022-10-16T18:26:42;15.90;86.20
17405;DHT22;8820;54.604;18.226;2022-10-16T18:29:11;15.90;86.30
17405;DHT22;8820;54.604;18.226;2022-10-16T18:31:40;15.90;86.50
17405;DHT22;8820;54.604;18.226;2022-10-16T18:34:10;16.00;86.70
17405;DHT22;8820;54.604;18.226;2022-10-16T18:36:38;15.90;87.00
17405;DHT22;8820;54.604;18.226;2022-10-16T18:39:09;15.90;87.40
17405;DHT22;8820;54.604;18.226;2022-10-16T18:41:38;15.90;87.60
17405;DHT22;8820;54.604;18.226;2022-10-16T18:44:08;15.90;87.70
17405;DHT22;8820;54.604;18.226;2022-10-16T18:46:37;15.90;87.90
17405;DHT22;8820;54.604;18.226;2022-10-16T18:49:06;15.80;88.00
17405;DHT22;8820;54.604;18.226;2022-10-16T18:51:36;15.90;88.30
17405;DHT22;8820;54.604;18.226;2022-10-16T18:54:09;15.90;88.60
17405;DHT22;8820;54.604;18.226;2022-10-16T18:56:38;15.80;88.70
17405;DHT22;8820;54.604;18.226;2022-10-16T18:59:08;15.80;88.90
17405;DHT22;8820;54.604;18.226;2022-10-16T19:01:37;15.80;89.00
17405;DHT22;8820;54.604;18.226;2022-10-16T19:04:07;15.80;89.10
17405;DHT22;8820;54.604;18.226;2022-10-16T19:06:38;15.80;89.30
17405;DHT22;8820;54.604;18.226;2022-10-16T19:09:07;15.80;89.50
17405;DHT22;8820;54.604;18.226;2022-10-16T19:11:36;15.80;89.80
17405;DHT22;8820;54.604;18.226;2022-10-16T19:14:09;15.80;89.80
17405;DHT22;8820;54.604;18.226;2022-10-16T19:16:38;15.70;90.00
17405;DHT22;8820;54.604;18.226;2022-10-16T19:19:11;15.70;90.00
17405;DHT22;8820;54.604;18.226;2022-10-16T19:21:40;15.70;90.00
17405;DHT22;8820;54.604;18.226;2022-10-16T19:24:11;15.70;90.10
17405;DHT22;8820;54.604;18.226;2022-10-16T19:26:40;15.80;90.10
17405;DHT22;8820;54.604;18.226;2022-10-16T19:29:10;15.80;90.10
17405;DHT22;8820;54.604;18.226;2022-10-16T19:31:39;15.80;90.10
17405;DHT22;8820;54.604;18.226;2022-10-16T19:34:09;15.80;90.20
17405;DHT22;8820;54.604;18.226;2022-10-16T19:36:38;15.80;90.30
17405;DHT22;8820;54.604;18.226;2022-10-16T19:39:10;15.70;90.50
17405;DHT22;8820;54.604;18.226;2022-10-16T19:41:39;15.70;90.30
17405;DHT22;8820;54.604;18.226;2022-10-16T19:44:10;15.80;90.60
17405;DHT22;8820;54.604;18.226;2022-10-16T19:46:38;15.70;90.30
17405;DHT22;8820;54.604;18.226;2022-10-16T19:49:09;15.70;90.40
17405;DHT22;8820;54.604;18.226;2022-10-16T19:51:38;15.70;90.50
17405;DHT22;8820;54.604;18.226;2022-10-16T19:54:11;15.70;90.60
17405;DHT22;8820;54.604;18.226;2022-10-16T19:56:40;15.70;90.70
17405;DHT22;8820;54.604;18.226;2022-10-16T19:59:11;15.70;90.80
17405;DHT22;8820;54.604;18.226;2022-10-16T20:01:42;15.60;90.90
17405;DHT22;8820;54.604;18.226;2022-10-16T20:04:11;15.60;90.90
17405;DHT22;8820;54.604;18.226;2022-10-16T20:06:40;15.60;91.00
17405;DHT22;8820;54.604;18.226;2022-10-16T20:09:08;15.60;91.10
17405;DHT22;8820;54.604;18.226;2022-10-16T20:11:37;15.60;91.10
17405;DHT22;8820;54.604;18.226;2022-10-16T20:14:06;15.60;91.20
17405;DHT22;8820;54.604;18.226;2022-10-16T20:16:36;15.60;91.30
17405;DHT22;8820;54.604;18.226;2022-10-16T20:19:06;15.60;91.30
17405;DHT22;8820;54.604;18.226;2022-10-16T20:21:34;15.60;91.40
17405;DHT22;8820;54.604;18.226;2022-10-16T20:24:03;15.50;91.50
17405;DHT22;8820;54.604;18.226;2022-10-16T20:26:33;15.50;91.50
17405;DHT22;8820;54.604;18.226;2022-10-16T20:29:02;15.50;91.60
17405;DHT22;8820;54.604;18.226;2022-10-16T20:31:32;15.50;91.70
17405;DHT22;8820;54.604;18.226;2022-10-16T20:34:05;15.50;91.70
17405;DHT22;8820;54.604;18.226;2022-10-16T20:36:35;15.50;91.70
17405;DHT22;8820;54.604;18.226;2022-10-16T20:39:05;15.50;91.80
17405;DHT22;8820;54.604;18.226;2022-10-16T20:41:34;15.50;91.90
17405;DHT22;8820;54.604;18.226;2022-10-16T20:44:03;15.40;92.00
17405;DHT22;8820;54.604;18.226;2022-10-16T20:46:32;15.40;92.10
17405;DHT22;8820;54.604;18.226;2022-10-16T20:49:02;15.40;92.10
17405;DHT22;8820;54.604;18.226;2022-10-16T20:51:37;15.40;92.10
17405;DHT22;8820;54.604;18.226;2022-10-16T20:54:06;15.40;92.10
17405;DHT22;8820;54.604;18.226;2022-10-16T20:56:35;15.40;92.10
17405;DHT22;8820;54.604;18.226;2022-10-16T20:59:04;15.40;92.20
17405;DHT22;8820;54.604;18.226;2022-10-16T21:01:33;15.40;92.20
17405;DHT22;8820;54.604;18.226;2022-10-16T21:04:05;15.40;92.20
17405;DHT22;8820;54.604;18.226;2022-10-16T21:06:36;15.40;92.20
17405;DHT22;8820;54.604;18.226;2022-10-16T21:09:05;15.40;92.10
17405;DHT22;8820;54.604;18.226;2022-10-16T21:11:36;15.50;92.10
17405;DHT22;8820;54.604;18.226;2022-10-16T21:14:06;15.50;92.10
17405;DHT22;8820;54.604;18.226;2022-10-16T21:16:35;15.50;92.10
17405;DHT22;8820;54.604;18.226;2022-10-16T21:19:05;15.40;92.10
17405;DHT22;8820;54.604;18.226;2022-10-16T21:21:35;15.40;92.20
17405;DHT22;8820;54.604;18.226;2022-10-16T21:24:04;15.40;92.20
17405;DHT22;8820;54.604;18.226;2022-10-16T21:26:34;15.30;92.30
17405;DHT22;8820;54.604;18.226;2022-10-16T21:29:03;15.30;92.30
17405;DHT22;8820;54.604;18.226;2022-10-16T21:31:33;15.30;92.40
17405;DHT22;8820;54.604;18.226;2022-10-16T21:34:02;15.30;92.40
17405;DHT22;8820;54.604;18.226;2022-10-16T21:36:33;15.30;92.40
17405;DHT22;8820;54.604;18.226;2022-10-16T21:39:04;15.30;92.50
17405;DHT22;8820;54.604;18.226;2022-10-16T21:41:34;15.30;92.50
17405;DHT22;8820;54.604;18.226;2022-10-16T21:44:04;15.30;92.50
17405;DHT22;8820;54.604;18.226;2022-10-16T21:46:34;15.30;92.50
